sensor_id;sensor_type;location;lat;lon;timestamp;temperature;humidity
15574;DHT22;7888;46.748;8.102;2022-11-24T00:01:04;7.70;53.20
15574;DHT22;7888;46.748;8.102;2022-11-24T00:03:31;7.70;53.50
15574;DHT22;7888;46.748;8.102;2022-11-24T00:06:04;7.70;53.20
15574;DHT22;7888;46.748;8.102;2022-11-24T00:08:32;7.70;53.60
15574;DHT22;7888;46.748;8.102;2022-11-24T00:11:06;7.70;53.40
15574;DHT22;7888;46.748;8.102;2022-11-24T00:13:35;7.70;53.70
15574;DHT22;7888;46.748;8.102;2022-11-24T00:16:09;7.70;53.60
15574;DHT22;7888;46.748;8.102;2022-11-24T00:18:37;7.70;54.00
15574;DHT22;7888;46.748;8.102;2022-11-24T00:21:05;7.80;53.80
15574;DHT22;7888;46.748;8.102;2022-11-24T00:23:31;7.80;53.90
15574;DHT22;7888;46.748;8.102;2022-11-24T00:26:08;7.80;53.90
15574;DHT22;7888;46.748;8.102;2022-11-24T00:28:35;7.80;54.30
15574;DHT22;7888;46.748;8.102;2022-11-24T00:31:03;7.80;53.80
15574;DHT22;7888;46.748;8.102;2022-11-24T00:33:30;7.80;53.80
15574;DHT22;7888;46.748;8.102;2022-11-24T00:35:57;7.80;53.80
15574;DHT22;7888;46.748;8.102;2022-11-24T00:38:24;7.80;54.00
15574;DHT22;7888;46.748;8.102;2022-11-24T00:40:51;7.90;54.10
15574;DHT22;7888;46.748;8.102;2022-11-24T00:43:18;7.90;54.00
15574;DHT22;7888;46.748;8.102;2022-11-24T00:45:44;7.90;54.00
15574;DHT22;7888;46.748;8.102;2022-11-24T00:48:10;7.90;54.00
15574;DHT22;7888;46.748;8.102;2022-11-24T00:50:36;7.90;53.90
15574;DHT22;7888;46.748;8.102;2022-11-24T00:53:01;7.90;54.00
15574;DHT22;7888;46.748;8.102;2022-11-24T00:55:27;8.00;54.10
15574;DHT22;7888;46.748;8.102;2022-11-24T00:57:53;7.90;54.10
15574;DHT22;7888;46.748;8.102;2022-11-24T01:00:19;8.00;54.20
15574;DHT22;7888;46.748;8.102;2022-11-24T01:02:45;7.90;54.10
15574;DHT22;7888;46.748;8.102;2022-11-24T01:05:11;8.00;54.10
15574;DHT22;7888;46.748;8.102;2022-11-24T01:07:37;8.00;54.10
15574;DHT22;7888;46.748;8.102;2022-11-24T01:10:04;8.00;54.00
15574;DHT22;7888;46.748;8.102;2022-11-24T01:12:30;8.00;54.00
15574;DHT22;7888;46.748;8.102;2022-11-24T01:14:57;8.00;54.00
15574;DHT22;7888;46.748;8.102;2022-11-24T01:17:23;8.00;54.20
15574;DHT22;7888;46.748;8.102;2022-11-24T01:19:49;7.90;54.10
15574;DHT22;7888;46.748;8.102;2022-11-24T01:22:15;8.00;54.30
15574;DHT22;7888;46.748;8.102;2022-11-24T01:24:41;7.90;54.30
15574;DHT22;7888;46.748;8.102;2022-11-24T01:27:07;8.00;54.40
15574;DHT22;7888;46.748;8.102;2022-11-24T01:29:33;7.90;54.40
15574;DHT22;7888;46.748;8.102;2022-11-24T01:31:59;8.00;54.60
15574;DHT22;7888;46.748;8.102;2022-11-24T01:34:25;8.00;54.70
15574;DHT22;7888;46.748;8.102;2022-11-24T01:36:51;8.00;54.60
15574;DHT22;7888;46.748;8.102;2022-11-24T01:39:17;8.00;54.50
15574;DHT22;7888;46.748;8.102;2022-11-24T01:41:42;8.00;54.40
15574;DHT22;7888;46.748;8.102;2022-11-24T01:44:24;8.00;54.60
15574;DHT22;7888;46.748;8.102;2022-11-24T01:47:29;7.90;55.30
15574;DHT22;7888;46.748;8.102;2022-11-24T01:49:55;8.00;54.80
15574;DHT22;7888;46.748;8.102;2022-11-24T01:55:13;8.00;54.60
15574;DHT22;7888;46.748;8.102;2022-11-24T01:57:51;8.00;55.10
15574;DHT22;7888;46.748;8.102;2022-11-24T02:00:21;8.00;55.10
15574;DHT22;7888;46.748;8.102;2022-11-24T02:02:47;8.00;54.70
15574;DHT22;7888;46.748;8.102;2022-11-24T02:05:46;8.00;54.80
15574;DHT22;7888;46.748;8.102;2022-11-24T02:08:42;8.00;55.80
15574;DHT22;7888;46.748;8.102;2022-11-24T02:11:12;8.00;55.70
15574;DHT22;7888;46.748;8.102;2022-11-24T02:13:39;8.00;54.80
15574;DHT22;7888;46.748;8.102;2022-11-24T02:16:09;8.00;54.90
15574;DHT22;7888;46.748;8.102;2022-11-24T02:18:41;8.00;55.10
15574;DHT22;7888;46.748;8.102;2022-11-24T02:21:09;8.00;55.30
15574;DHT22;7888;46.748;8.102;2022-11-24T02:24:03;8.10;55.00
15574;DHT22;7888;46.748;8.102;2022-11-24T02:26:40;8.10;55.60
15574;DHT22;7888;46.748;8.102;2022-11-24T02:29:12;8.10;55.20
15574;DHT22;7888;46.748;8.102;2022-11-24T02:31:54;8.10;55.00
15574;DHT22;7888;46.748;8.102;2022-11-24T02:34:24;8.10;55.30
15574;DHT22;7888;46.748;8.102;2022-11-24T02:36:50;8.10;54.90
15574;DHT22;7888;46.748;8.102;2022-11-24T02:39:16;8.10;55.00
15574;DHT22;7888;46.748;8.102;2022-11-24T02:41:49;8.00;55.00
15574;DHT22;7888;46.748;8.102;2022-11-24T02:44:19;8.00;55.30
15574;DHT22;7888;46.748;8.102;2022-11-24T02:46:49;8.00;55.30
15574;DHT22;7888;46.748;8.102;2022-11-24T02:49:25;8.00;55.20
15574;DHT22;7888;46.748;8.102;2022-11-24T02:51:51;8.00;55.10
15574;DHT22;7888;46.748;8.102;2022-11-24T02:54:17;8.00;55.10
15574;DHT22;7888;46.748;8.102;2022-11-24T02:56:42;8.00;55.20
15574;DHT22;7888;46.748;8.102;2022-11-24T02:59:08;8.00;55.30
15574;DHT22;7888;46.748;8.102;2022-11-24T03:01:34;8.10;55.20
15574;DHT22;7888;46.748;8.102;2022-11-24T03:04:00;8.10;55.20
15574;DHT22;7888;46.748;8.102;2022-11-24T03:06:25;8.10;55.10
15574;DHT22;7888;46.748;8.102;2022-11-24T03:08:51;8.10;55.10
15574;DHT22;7888;46.748;8.102;2022-11-24T03:11:17;8.10;55.30
15574;DHT22;7888;46.748;8.102;2022-11-24T03:13:43;8.10;55.30
15574;DHT22;7888;46.748;8.102;2022-11-24T03:16:09;8.10;55.30
15574;DHT22;7888;46.748;8.102;2022-11-24T03:18:35;8.10;55.30
15574;DHT22;7888;46.748;8.102;2022-11-24T03:21:01;8.10;55.40
15574;DHT22;7888;46.748;8.102;2022-11-24T03:23:26;8.10;55.50
15574;DHT22;7888;46.748;8.102;2022-11-24T03:25:52;8.10;55.50
15574;DHT22;7888;46.748;8.102;2022-11-24T03:28:19;8.20;55.60
15574;DHT22;7888;46.748;8.102;2022-11-24T03:30:47;8.20;55.60
15574;DHT22;7888;46.748;8.102;2022-11-24T03:33:13;8.20;55.80
15574;DHT22;7888;46.748;8.102;2022-11-24T03:35:39;8.20;55.80
15574;DHT22;7888;46.748;8.102;2022-11-24T03:38:05;8.20;55.90
15574;DHT22;7888;46.748;8.102;2022-11-24T03:40:31;8.20;55.90
15574;DHT22;7888;46.748;8.102;2022-11-24T03:42:56;8.20;55.90
15574;DHT22;7888;46.748;8.102;2022-11-24T03:45:22;8.20;55.90
15574;DHT22;7888;46.748;8.102;2022-11-24T03:47:50;8.20;55.90
15574;DHT22;7888;46.748;8.102;2022-11-24T03:50:16;8.30;56.00
15574;DHT22;7888;46.748;8.102;2022-11-24T03:52:42;8.30;56.00
15574;DHT22;7888;46.748;8.102;2022-11-24T03:55:08;8.30;56.00
15574;DHT22;7888;46.748;8.102;2022-11-24T03:57:34;8.30;56.10
15574;DHT22;7888;46.748;8.102;2022-11-24T04:00:00;8.30;56.10
15574;DHT22;7888;46.748;8.102;2022-11-24T04:02:25;8.30;56.10
15574;DHT22;7888;46.748;8.102;2022-11-24T04:04:51;8.30;56.00
15574;DHT22;7888;46.748;8.102;2022-11-24T04:07:17;8.30;56.00
15574;DHT22;7888;46.748;8.102;2022-11-24T04:09:44;8.30;55.90
15574;DHT22;7888;46.748;8.102;2022-11-24T04:12:09;8.30;55.90
15574;DHT22;7888;46.748;8.102;2022-11-24T04:14:54;8.30;55.90
15574;DHT22;7888;46.748;8.102;2022-11-24T04:17:20;8.30;55.70
15574;DHT22;7888;46.748;8.102;2022-11-24T04:19:45;8.30;55.60
15574;DHT22;7888;46.748;8.102;2022-11-24T04:22:11;8.40;55.60
15574;DHT22;7888;46.748;8.102;2022-11-24T04:24:37;8.40;55.50
15574;DHT22;7888;46.748;8.102;2022-11-24T04:27:03;8.40;55.40
15574;DHT22;7888;46.748;8.102;2022-11-24T04:29:29;8.40;55.50
15574;DHT22;7888;46.748;8.102;2022-11-24T04:31:54;8.40;55.70
15574;DHT22;7888;46.748;8.102;2022-11-24T04:34:20;8.40;55.70
15574;DHT22;7888;46.748;8.102;2022-11-24T04:36:46;8.40;55.70
15574;DHT22;7888;46.748;8.102;2022-11-24T04:39:12;8.40;55.70
15574;DHT22;7888;46.748;8.102;2022-11-24T04:41:38;8.40;55.70
15574;DHT22;7888;46.748;8.102;2022-11-24T04:44:04;8.30;55.80
15574;DHT22;7888;46.748;8.102;2022-11-24T04:46:29;8.40;55.90
15574;DHT22;7888;46.748;8.102;2022-11-24T04:48:55;8.30;55.90
15574;DHT22;7888;46.748;8.102;2022-11-24T04:51:21;8.30;56.10
15574;DHT22;7888;46.748;8.102;2022-11-24T04:53:48;8.40;56.20
15574;DHT22;7888;46.748;8.102;2022-11-24T04:56:13;8.40;56.10
15574;DHT22;7888;46.748;8.102;2022-11-24T04:58:39;8.40;56.10
15574;DHT22;7888;46.748;8.102;2022-11-24T05:01:06;8.40;56.10
15574;DHT22;7888;46.748;8.102;2022-11-24T05:03:34;8.40;56.20
15574;DHT22;7888;46.748;8.102;2022-11-24T05:06:01;8.40;56.20
15574;DHT22;7888;46.748;8.102;2022-11-24T05:08:27;8.40;56.10
15574;DHT22;7888;46.748;8.102;2022-11-24T05:10:53;8.40;56.10
15574;DHT22;7888;46.748;8.102;2022-11-24T05:13:18;8.40;56.70
15574;DHT22;7888;46.748;8.102;2022-11-24T05:15:44;8.40;56.00
15574;DHT22;7888;46.748;8.102;2022-11-24T05:18:12;8.40;56.00
15574;DHT22;7888;46.748;8.102;2022-11-24T05:20:42;8.30;55.90
15574;DHT22;7888;46.748;8.102;2022-11-24T05:23:11;8.40;55.90
15574;DHT22;7888;46.748;8.102;2022-11-24T05:25:37;8.40;56.00
15574;DHT22;7888;46.748;8.102;2022-11-24T05:28:05;8.40;56.00
15574;DHT22;7888;46.748;8.102;2022-11-24T05:30:36;8.40;56.10
15574;DHT22;7888;46.748;8.102;2022-11-24T05:33:08;8.40;56.00
15574;DHT22;7888;46.748;8.102;2022-11-24T05:35:46;8.40;55.90
15574;DHT22;7888;46.748;8.102;2022-11-24T05:38:14;8.30;55.60
15574;DHT22;7888;46.748;8.102;2022-11-24T05:40:41;8.30;55.50
15574;DHT22;7888;46.748;8.102;2022-11-24T05:43:11;8.30;55.60
15574;DHT22;7888;46.748;8.102;2022-11-24T05:45:39;8.30;56.60
15574;DHT22;7888;46.748;8.102;2022-11-24T05:48:11;8.40;55.90
15574;DHT22;7888;46.748;8.102;2022-11-24T05:50:39;8.40;56.00
15574;DHT22;7888;46.748;8.102;2022-11-24T05:53:08;8.40;55.70
15574;DHT22;7888;46.748;8.102;2022-11-24T05:55:36;8.40;55.70
15574;DHT22;7888;46.748;8.102;2022-11-24T05:58:07;8.30;55.60
15574;DHT22;7888;46.748;8.102;2022-11-24T06:00:35;8.30;55.80
15574;DHT22;7888;46.748;8.102;2022-11-24T06:03:01;8.30;55.60
15574;DHT22;7888;46.748;8.102;2022-11-24T06:05:28;8.30;55.80
15574;DHT22;7888;46.748;8.102;2022-11-24T06:07:55;8.30;55.90
15574;DHT22;7888;46.748;8.102;2022-11-24T06:10:21;8.30;55.80
15574;DHT22;7888;46.748;8.102;2022-11-24T06:12:50;8.30;56.20
15574;DHT22;7888;46.748;8.102;2022-11-24T06:15:17;8.30;56.30
15574;DHT22;7888;46.748;8.102;2022-11-24T06:17:43;8.30;56.10
15574;DHT22;7888;46.748;8.102;2022-11-24T06:20:09;8.30;56.00
15574;DHT22;7888;46.748;8.102;2022-11-24T06:22:36;8.30;56.10
15574;DHT22;7888;46.748;8.102;2022-11-24T06:25:03;8.30;56.00
15574;DHT22;7888;46.748;8.102;2022-11-24T06:27:29;8.30;55.80
15574;DHT22;7888;46.748;8.102;2022-11-24T06:29:55;8.30;55.80
15574;DHT22;7888;46.748;8.102;2022-11-24T06:32:21;8.30;55.90
15574;DHT22;7888;46.748;8.102;2022-11-24T06:34:48;8.30;56.00
15574;DHT22;7888;46.748;8.102;2022-11-24T06:37:14;8.30;56.10
15574;DHT22;7888;46.748;8.102;2022-11-24T06:39:40;8.30;56.00
15574;DHT22;7888;46.748;8.102;2022-11-24T06:42:05;8.30;56.10
15574;DHT22;7888;46.748;8.102;2022-11-24T06:44:31;8.30;56.20
15574;DHT22;7888;46.748;8.102;2022-11-24T06:46:57;8.30;56.30
15574;DHT22;7888;46.748;8.102;2022-11-24T06:49:23;8.30;56.20
15574;DHT22;7888;46.748;8.102;2022-11-24T06:51:49;8.30;56.00
15574;DHT22;7888;46.748;8.102;2022-11-24T06:54:16;8.30;55.90
15574;DHT22;7888;46.748;8.102;2022-11-24T06:56:45;8.30;56.00
15574;DHT22;7888;46.748;8.102;2022-11-24T06:59:17;8.30;56.00
15574;DHT22;7888;46.748;8.102;2022-11-24T07:01:44;8.30;56.10
15574;DHT22;7888;46.748;8.102;2022-11-24T07:04:11;8.30;55.80
15574;DHT22;7888;46.748;8.102;2022-11-24T07:06:37;8.30;55.70
15574;DHT22;7888;46.748;8.102;2022-11-24T07:09:06;8.20;55.70
15574;DHT22;7888;46.748;8.102;2022-11-24T07:11:33;8.20;55.70
15574;DHT22;7888;46.748;8.102;2022-11-24T07:13:59;8.20;55.70
15574;DHT22;7888;46.748;8.102;2022-11-24T07:16:26;8.10;55.80
15574;DHT22;7888;46.748;8.102;2022-11-24T07:18:52;8.10;55.80
15574;DHT22;7888;46.748;8.102;2022-11-24T07:21:20;8.10;56.00
15574;DHT22;7888;46.748;8.102;2022-11-24T07:23:48;8.10;56.10
15574;DHT22;7888;46.748;8.102;2022-11-24T07:26:15;8.10;56.10
15574;DHT22;7888;46.748;8.102;2022-11-24T07:28:41;8.10;56.10
15574;DHT22;7888;46.748;8.102;2022-11-24T07:31:10;8.10;56.20
15574;DHT22;7888;46.748;8.102;2022-11-24T07:33:38;8.10;56.40
15574;DHT22;7888;46.748;8.102;2022-11-24T07:36:05;8.20;56.40
15574;DHT22;7888;46.748;8.102;2022-11-24T07:38:32;8.20;56.50
15574;DHT22;7888;46.748;8.102;2022-11-24T07:41:03;8.20;56.40
15574;DHT22;7888;46.748;8.102;2022-11-24T07:43:31;8.20;56.40
15574;DHT22;7888;46.748;8.102;2022-11-24T07:45:58;8.20;56.50
15574;DHT22;7888;46.748;8.102;2022-11-24T07:48:25;8.30;56.50
15574;DHT22;7888;46.748;8.102;2022-11-24T07:50:51;8.30;56.50
15574;DHT22;7888;46.748;8.102;2022-11-24T07:53:17;8.30;56.50
15574;DHT22;7888;46.748;8.102;2022-11-24T07:55:43;8.30;56.60
15574;DHT22;7888;46.748;8.102;2022-11-24T07:58:17;8.40;56.70
15574;DHT22;7888;46.748;8.102;2022-11-24T08:00:42;8.40;56.80
15574;DHT22;7888;46.748;8.102;2022-11-24T08:03:08;8.50;56.90
15574;DHT22;7888;46.748;8.102;2022-11-24T08:05:34;8.50;57.00
15574;DHT22;7888;46.748;8.102;2022-11-24T08:08:00;8.50;56.90
15574;DHT22;7888;46.748;8.102;2022-11-24T08:10:26;8.50;56.80
15574;DHT22;7888;46.748;8.102;2022-11-24T08:12:52;8.60;56.80
15574;DHT22;7888;46.748;8.102;2022-11-24T08:15:18;8.60;56.90
15574;DHT22;7888;46.748;8.102;2022-11-24T08:17:44;8.60;56.90
15574;DHT22;7888;46.748;8.102;2022-11-24T08:20:10;8.60;56.80
15574;DHT22;7888;46.748;8.102;2022-11-24T08:22:36;8.60;56.80
15574;DHT22;7888;46.748;8.102;2022-11-24T08:25:02;8.60;56.60
15574;DHT22;7888;46.748;8.102;2022-11-24T08:27:29;8.60;56.50
15574;DHT22;7888;46.748;8.102;2022-11-24T08:29:55;8.60;56.40
15574;DHT22;7888;46.748;8.102;2022-11-24T08:32:21;8.60;56.40
15574;DHT22;7888;46.748;8.102;2022-11-24T08:34:46;8.60;56.40
15574;DHT22;7888;46.748;8.102;2022-11-24T08:37:12;8.60;56.50
15574;DHT22;7888;46.748;8.102;2022-11-24T08:39:38;8.60;56.60
15574;DHT22;7888;46.748;8.102;2022-11-24T08:42:04;8.60;56.80
15574;DHT22;7888;46.748;8.102;2022-11-24T08:44:30;8.60;57.00
15574;DHT22;7888;46.748;8.102;2022-11-24T08:46:56;8.60;57.00
15574;DHT22;7888;46.748;8.102;2022-11-24T08:49:21;8.60;56.80
15574;DHT22;7888;46.748;8.102;2022-11-24T08:51:47;8.70;56.90
15574;DHT22;7888;46.748;8.102;2022-11-24T08:54:16;8.70;57.10
15574;DHT22;7888;46.748;8.102;2022-11-24T08:56:44;8.70;57.30
15574;DHT22;7888;46.748;8.102;2022-11-24T08:59:12;8.80;57.60
15574;DHT22;7888;46.748;8.102;2022-11-24T09:01:38;8.80;57.80
15574;DHT22;7888;46.748;8.102;2022-11-24T09:04:04;8.90;57.60
15574;DHT22;7888;46.748;8.102;2022-11-24T09:06:30;8.90;57.60
15574;DHT22;7888;46.748;8.102;2022-11-24T09:08:57;9.00;57.80
15574;DHT22;7888;46.748;8.102;2022-11-24T09:11:24;9.10;58.00
15574;DHT22;7888;46.748;8.102;2022-11-24T09:13:53;9.10;57.70
15574;DHT22;7888;46.748;8.102;2022-11-24T09:16:24;9.20;57.40
15574;DHT22;7888;46.748;8.102;2022-11-24T09:19:03;9.20;57.40
15574;DHT22;7888;46.748;8.102;2022-11-24T09:21:31;9.30;57.60
15574;DHT22;7888;46.748;8.102;2022-11-24T09:24:05;9.30;57.50
15574;DHT22;7888;46.748;8.102;2022-11-24T09:26:34;9.40;57.70
15574;DHT22;7888;46.748;8.102;2022-11-24T09:29:03;9.40;57.90
15574;DHT22;7888;46.748;8.102;2022-11-24T09:31:32;9.50;58.00
15574;DHT22;7888;46.748;8.102;2022-11-24T09:34:00;9.50;58.00
15574;DHT22;7888;46.748;8.102;2022-11-24T09:36:28;9.60;58.00
15574;DHT22;7888;46.748;8.102;2022-11-24T09:38:55;9.70;58.10
15574;DHT22;7888;46.748;8.102;2022-11-24T09:45:01;9.80;58.30
15574;DHT22;7888;46.748;8.102;2022-11-24T09:47:43;10.00;58.00
15574;DHT22;7888;46.748;8.102;2022-11-24T09:50:17;10.10;58.30
15574;DHT22;7888;46.748;8.102;2022-11-24T09:53:23;10.20;58.90
15574;DHT22;7888;46.748;8.102;2022-11-24T09:56:20;10.40;59.00
15574;DHT22;7888;46.748;8.102;2022-11-24T09:58:50;10.50;58.60
15574;DHT22;7888;46.748;8.102;2022-11-24T10:01:30;10.70;58.40
15574;DHT22;7888;46.748;8.102;2022-11-24T10:03:59;10.90;58.30
15574;DHT22;7888;46.748;8.102;2022-11-24T10:06:42;11.10;57.90
15574;DHT22;7888;46.748;8.102;2022-11-24T10:14:45;11.40;57.10
15574;DHT22;7888;46.748;8.102;2022-11-24T10:26:34;11.70;56.40
15574;DHT22;7888;46.748;8.102;2022-11-24T10:29:38;11.70;56.30
15574;DHT22;7888;46.748;8.102;2022-11-24T10:32:16;11.70;56.40
15574;DHT22;7888;46.748;8.102;2022-11-24T10:34:46;11.80;56.60
15574;DHT22;7888;46.748;8.102;2022-11-24T10:37:36;11.90;56.90
15574;DHT22;7888;46.748;8.102;2022-11-24T10:40:11;12.10;56.70
15574;DHT22;7888;46.748;8.102;2022-11-24T10:42:43;12.30;56.50
15574;DHT22;7888;46.748;8.102;2022-11-24T10:45:15;12.40;56.10
15574;DHT22;7888;46.748;8.102;2022-11-24T10:47:43;12.50;55.50
15574;DHT22;7888;46.748;8.102;2022-11-24T10:50:26;12.60;55.30
15574;DHT22;7888;46.748;8.102;2022-11-24T10:58:40;12.80;54.70
15574;DHT22;7888;46.748;8.102;2022-11-24T11:03:52;13.00;54.90
15574;DHT22;7888;46.748;8.102;2022-11-24T11:06:29;13.10;54.80
15574;DHT22;7888;46.748;8.102;2022-11-24T11:11:31;13.30;54.20
15574;DHT22;7888;46.748;8.102;2022-11-24T11:14:03;13.50;54.70
15574;DHT22;7888;46.748;8.102;2022-11-24T11:16:41;13.60;54.80
15574;DHT22;7888;46.748;8.102;2022-11-24T11:19:36;13.80;54.80
15574;DHT22;7888;46.748;8.102;2022-11-24T11:24:38;14.10;53.50
15574;DHT22;7888;46.748;8.102;2022-11-24T11:27:24;14.10;53.50
15574;DHT22;7888;46.748;8.102;2022-11-24T11:29:51;14.30;53.80
15574;DHT22;7888;46.748;8.102;2022-11-24T11:34:51;14.90;54.90
15574;DHT22;7888;46.748;8.102;2022-11-24T11:37:21;15.20;54.30
15574;DHT22;7888;46.748;8.102;2022-11-24T11:39:51;15.40;53.50
15574;DHT22;7888;46.748;8.102;2022-11-24T11:45:15;15.50;52.00
15574;DHT22;7888;46.748;8.102;2022-11-24T11:53:18;15.30;50.40
15574;DHT22;7888;46.748;8.102;2022-11-24T12:15:46;14.40;50.80
15574;DHT22;7888;46.748;8.102;2022-11-24T12:18:44;14.30;51.00
15574;DHT22;7888;46.748;8.102;2022-11-24T12:21:33;14.20;51.10
15574;DHT22;7888;46.748;8.102;2022-11-24T12:24:56;14.10;51.20
15574;DHT22;7888;46.748;8.102;2022-11-24T12:31:32;14.10;51.40
15574;DHT22;7888;46.748;8.102;2022-11-24T12:33:43;14.00;51.40
15574;DHT22;7888;46.748;8.102;2022-11-24T12:36:39;14.00;51.20
15574;DHT22;7888;46.748;8.102;2022-11-24T12:42:58;13.90;51.30
15574;DHT22;7888;46.748;8.102;2022-11-24T12:55:21;13.90;51.10
15574;DHT22;7888;46.748;8.102;2022-11-24T13:06:44;13.90;51.60
15574;DHT22;7888;46.748;8.102;2022-11-24T13:09:36;13.90;51.80
15574;DHT22;7888;46.748;8.102;2022-11-24T13:12:13;13.90;51.90
15574;DHT22;7888;46.748;8.102;2022-11-24T13:14:45;13.80;51.90
15574;DHT22;7888;46.748;8.102;2022-11-24T13:17:32;13.80;52.00
15574;DHT22;7888;46.748;8.102;2022-11-24T13:22:57;13.70;51.60
15574;DHT22;7888;46.748;8.102;2022-11-24T13:25:31;13.60;51.60
15574;DHT22;7888;46.748;8.102;2022-11-24T13:28:03;13.60;51.70
15574;DHT22;7888;46.748;8.102;2022-11-24T13:49:41;13.60;50.60
15574;DHT22;7888;46.748;8.102;2022-11-24T13:52:40;13.60;50.40
15574;DHT22;7888;46.748;8.102;2022-11-24T13:57:44;13.60;50.50
15574;DHT22;7888;46.748;8.102;2022-11-24T14:00:34;13.50;50.50
15574;DHT22;7888;46.748;8.102;2022-11-24T14:03:30;13.50;50.20
15574;DHT22;7888;46.748;8.102;2022-11-24T14:06:02;13.40;50.30
15574;DHT22;7888;46.748;8.102;2022-11-24T14:08:31;13.40;50.40
15574;DHT22;7888;46.748;8.102;2022-11-24T14:11:01;13.40;50.20
15574;DHT22;7888;46.748;8.102;2022-11-24T14:13:35;13.30;50.00
15574;DHT22;7888;46.748;8.102;2022-11-24T14:16:17;13.30;50.10
15574;DHT22;7888;46.748;8.102;2022-11-24T14:18:48;13.30;50.20
15574;DHT22;7888;46.748;8.102;2022-11-24T14:21:25;13.30;50.20
15574;DHT22;7888;46.748;8.102;2022-11-24T14:24:10;13.30;50.00
15574;DHT22;7888;46.748;8.102;2022-11-24T14:26:45;13.20;49.90
15574;DHT22;7888;46.748;8.102;2022-11-24T14:29:15;13.20;50.10
15574;DHT22;7888;46.748;8.102;2022-11-24T14:31:59;13.20;50.00
15574;DHT22;7888;46.748;8.102;2022-11-24T14:34:30;13.20;50.40
15574;DHT22;7888;46.748;8.102;2022-11-24T14:36:59;13.10;50.50
15574;DHT22;7888;46.748;8.102;2022-11-24T14:39:26;13.10;50.50
15574;DHT22;7888;46.748;8.102;2022-11-24T14:42:04;13.00;50.50
15574;DHT22;7888;46.748;8.102;2022-11-24T14:47:33;13.00;50.50
15574;DHT22;7888;46.748;8.102;2022-11-24T14:50:22;12.90;50.60
15574;DHT22;7888;46.748;8.102;2022-11-24T14:52:54;12.90;50.80
15574;DHT22;7888;46.748;8.102;2022-11-24T14:55:32;12.90;50.90
15574;DHT22;7888;46.748;8.102;2022-11-24T14:58:19;12.80;50.80
15574;DHT22;7888;46.748;8.102;2022-11-24T15:01:19;12.80;50.90
15574;DHT22;7888;46.748;8.102;2022-11-24T15:06:48;12.70;50.90
15574;DHT22;7888;46.748;8.102;2022-11-24T15:12:04;12.60;51.00
15574;DHT22;7888;46.748;8.102;2022-11-24T15:17:16;12.50;51.10
15574;DHT22;7888;46.748;8.102;2022-11-24T15:19:50;12.50;51.20
15574;DHT22;7888;46.748;8.102;2022-11-24T15:22:34;12.40;51.10
15574;DHT22;7888;46.748;8.102;2022-11-24T15:25:01;12.40;51.10
15574;DHT22;7888;46.748;8.102;2022-11-24T15:27:45;12.30;51.10
15574;DHT22;7888;46.748;8.102;2022-11-24T15:30:11;12.40;51.10
15574;DHT22;7888;46.748;8.102;2022-11-24T15:32:47;12.30;51.10
15574;DHT22;7888;46.748;8.102;2022-11-24T15:35:24;12.20;51.10
15574;DHT22;7888;46.748;8.102;2022-11-24T15:37:53;12.20;51.10
15574;DHT22;7888;46.748;8.102;2022-11-24T15:40:19;12.20;51.20
15574;DHT22;7888;46.748;8.102;2022-11-24T15:42:50;12.20;51.20
15574;DHT22;7888;46.748;8.102;2022-11-24T15:45:22;12.20;51.20
15574;DHT22;7888;46.748;8.102;2022-11-24T15:47:50;12.10;51.20
15574;DHT22;7888;46.748;8.102;2022-11-24T15:50:18;12.10;51.20
15574;DHT22;7888;46.748;8.102;2022-11-24T15:52:45;12.00;51.20
15574;DHT22;7888;46.748;8.102;2022-11-24T15:55:17;12.00;51.20
15574;DHT22;7888;46.748;8.102;2022-11-24T15:57:44;12.00;51.20
15574;DHT22;7888;46.748;8.102;2022-11-24T16:00:15;11.90;51.20
15574;DHT22;7888;46.748;8.102;2022-11-24T16:02:42;11.90;51.30
15574;DHT22;7888;46.748;8.102;2022-11-24T16:05:09;11.80;51.30
15574;DHT22;7888;46.748;8.102;2022-11-24T16:07:36;11.80;51.30
15574;DHT22;7888;46.748;8.102;2022-11-24T16:10:03;11.70;51.30
15574;DHT22;7888;46.748;8.102;2022-11-24T16:12:30;11.70;51.20
15574;DHT22;7888;46.748;8.102;2022-11-24T16:14:55;11.60;51.10
15574;DHT22;7888;46.748;8.102;2022-11-24T16:17:21;11.60;51.10
15574;DHT22;7888;46.748;8.102;2022-11-24T16:19:47;11.50;51.10
15574;DHT22;7888;46.748;8.102;2022-11-24T16:22:13;11.50;51.20
15574;DHT22;7888;46.748;8.102;2022-11-24T16:24:39;11.50;51.20
15574;DHT22;7888;46.748;8.102;2022-11-24T16:27:04;11.40;51.40
15574;DHT22;7888;46.748;8.102;2022-11-24T16:29:30;11.40;51.40
15574;DHT22;7888;46.748;8.102;2022-11-24T16:31:56;11.30;51.40
15574;DHT22;7888;46.748;8.102;2022-11-24T16:34:22;11.20;51.40
15574;DHT22;7888;46.748;8.102;2022-11-24T16:36:48;11.30;51.50
15574;DHT22;7888;46.748;8.102;2022-11-24T16:39:14;11.20;51.60
15574;DHT22;7888;46.748;8.102;2022-11-24T16:41:40;11.20;51.70
15574;DHT22;7888;46.748;8.102;2022-11-24T16:44:06;11.10;51.60
15574;DHT22;7888;46.748;8.102;2022-11-24T16:46:31;11.10;51.60
15574;DHT22;7888;46.748;8.102;2022-11-24T16:48:58;11.00;51.60
15574;DHT22;7888;46.748;8.102;2022-11-24T16:51:28;11.00;51.70
15574;DHT22;7888;46.748;8.102;2022-11-24T16:54:00;10.90;51.80
15574;DHT22;7888;46.748;8.102;2022-11-24T16:56:27;10.90;51.90
15574;DHT22;7888;46.748;8.102;2022-11-24T16:58:54;10.90;51.90
15574;DHT22;7888;46.748;8.102;2022-11-24T17:01:20;10.90;52.00
15574;DHT22;7888;46.748;8.102;2022-11-24T17:03:47;10.90;52.10
15574;DHT22;7888;46.748;8.102;2022-11-24T17:06:14;10.80;52.00
15574;DHT22;7888;46.748;8.102;2022-11-24T17:08:43;10.80;52.00
15574;DHT22;7888;46.748;8.102;2022-11-24T17:11:14;10.80;52.00
15574;DHT22;7888;46.748;8.102;2022-11-24T17:13:45;10.70;52.10
15574;DHT22;7888;46.748;8.102;2022-11-24T17:16:17;10.70;52.10
15574;DHT22;7888;46.748;8.102;2022-11-24T17:18:45;10.70;52.00
15574;DHT22;7888;46.748;8.102;2022-11-24T17:21:14;10.60;52.00
15574;DHT22;7888;46.748;8.102;2022-11-24T17:23:44;10.60;52.20
15574;DHT22;7888;46.748;8.102;2022-11-24T17:26:15;10.60;52.30
15574;DHT22;7888;46.748;8.102;2022-11-24T17:28:42;10.60;52.30
15574;DHT22;7888;46.748;8.102;2022-11-24T17:33:58;10.50;52.30
15574;DHT22;7888;46.748;8.102;2022-11-24T17:36:26;10.50;52.20
15574;DHT22;7888;46.748;8.102;2022-11-24T17:38:52;10.40;52.20
15574;DHT22;7888;46.748;8.102;2022-11-24T17:41:19;10.40;52.30
15574;DHT22;7888;46.748;8.102;2022-11-24T17:43:49;10.40;52.30
15574;DHT22;7888;46.748;8.102;2022-11-24T17:46:16;10.30;52.30
15574;DHT22;7888;46.748;8.102;2022-11-24T17:48:41;10.30;52.30
15574;DHT22;7888;46.748;8.102;2022-11-24T17:51:11;10.30;52.40
15574;DHT22;7888;46.748;8.102;2022-11-24T17:53:43;10.20;52.40
15574;DHT22;7888;46.748;8.102;2022-11-24T17:56:13;10.20;52.40
15574;DHT22;7888;46.748;8.102;2022-11-24T17:58:40;10.20;52.50
15574;DHT22;7888;46.748;8.102;2022-11-24T18:01:06;10.20;52.50
15574;DHT22;7888;46.748;8.102;2022-11-24T18:03:32;10.10;52.60
15574;DHT22;7888;46.748;8.102;2022-11-24T18:06:12;10.10;52.60
15574;DHT22;7888;46.748;8.102;2022-11-24T18:08:41;10.10;52.60
15574;DHT22;7888;46.748;8.102;2022-11-24T18:11:14;10.10;52.50
15574;DHT22;7888;46.748;8.102;2022-11-24T18:13:49;10.00;52.50
15574;DHT22;7888;46.748;8.102;2022-11-24T18:16:16;10.00;52.50
15574;DHT22;7888;46.748;8.102;2022-11-24T18:18:43;10.00;52.70
15574;DHT22;7888;46.748;8.102;2022-11-24T18:21:14;10.00;52.70
15574;DHT22;7888;46.748;8.102;2022-11-24T18:23:42;10.00;53.10